createdAt,value
2017-12-01T00:01:12.471Z,100183
2017-12-01T00:03:40.525Z,100184
2017-12-01T00:06:09.432Z,100190
2017-12-01T00:08:37.514Z,100186
2017-12-01T00:11:05.582Z,100189
2017-12-01T00:13:33.653Z,100199
2017-12-01T00:16:02.047Z,100197
2017-12-01T00:18:30.895Z,100194
2017-12-01T00:20:58.971Z,100198
2017-12-01T00:23:27.039Z,100197
2017-12-01T00:25:55.110Z,100211
2017-12-01T00:28:23.297Z,100210
2017-12-01T00:30:51.363Z,100219
2017-12-01T00:33:19.439Z,100224
2017-12-01T00:35:47.519Z,100223
2017-12-01T00:38:15.592Z,100222
2017-12-01T00:40:44.161Z,100235
2017-12-01T00:43:12.397Z,100235
2017-12-01T00:45:40.677Z,100228
2017-12-01T00:48:08.731Z,100236
2017-12-01T00:50:36.807Z,100233
2017-12-01T00:53:05.732Z,100238
2017-12-01T00:55:33.832Z,100234
2017-12-01T00:58:01.904Z,100232
2017-12-01T01:00:29.988Z,100235
2017-12-01T01:02:58.852Z,100238
2017-12-01T01:05:26.932Z,100234
2017-12-01T01:07:55.824Z,100250
2017-12-01T01:10:23.897Z,100251
2017-12-01T01:12:53.618Z,100262
2017-12-01T01:15:22.467Z,100259
2017-12-01T01:17:51.944Z,100255
2017-12-01T01:20:20.011Z,100263
2017-12-01T01:22:48.075Z,100265
2017-12-01T01:25:16.149Z,100264
2017-12-01T01:27:44.227Z,100272
2017-12-01T01:30:12.300Z,100271
2017-12-01T01:32:40.379Z,100281
2017-12-01T01:35:08.477Z,100274
2017-12-01T01:37:36.551Z,100285
2017-12-01T01:40:04.714Z,100277
2017-12-01T01:42:32.784Z,100276
2017-12-01T01:45:01.022Z,100281
2017-12-01T01:47:29.110Z,100277
2017-12-01T01:49:57.171Z,100280
2017-12-01T01:52:26.176Z,100285
2017-12-01T01:54:54.499Z,100281
2017-12-01T01:57:23.363Z,100290
2017-12-01T01:59:51.432Z,100292
2017-12-01T02:02:19.532Z,100292
2017-12-01T02:04:48.430Z,100293
2017-12-01T02:07:16.566Z,100297
2017-12-01T02:09:44.641Z,100300
2017-12-01T02:12:12.728Z,100300
2017-12-01T02:14:41.596Z,100298
2017-12-01T02:17:09.675Z,100297
2017-12-01T02:19:37.771Z,100289
2017-12-01T02:22:07.586Z,100295
2017-12-01T02:24:35.661Z,100299
2017-12-01T02:27:03.749Z,100307
2017-12-01T02:29:31.876Z,100306
2017-12-01T02:32:00.445Z,100314
2017-12-01T02:34:28.515Z,100306
2017-12-01T02:36:56.591Z,100310
2017-12-01T02:39:24.786Z,100320
2017-12-01T02:41:53.689Z,100312
2017-12-01T02:44:22.588Z,100308
2017-12-01T02:46:50.651Z,100318
2017-12-01T02:49:18.725Z,100320
2017-12-01T02:51:46.812Z,100322
2017-12-01T02:54:14.884Z,100330
2017-12-01T02:56:42.960Z,100336
2017-12-01T02:59:12.253Z,100337
2017-12-01T03:01:40.380Z,100325
2017-12-01T03:04:08.450Z,100335
2017-12-01T03:06:36.877Z,100331
2017-12-01T03:09:05.024Z,100330
2017-12-01T03:11:33.946Z,100326
2017-12-01T03:14:02.012Z,100317
2017-12-01T03:16:30.129Z,100333
2017-12-01T03:18:58.970Z,100321
2017-12-01T03:21:27.043Z,100340
2017-12-01T03:23:55.098Z,100337
2017-12-01T03:26:23.188Z,100343
2017-12-01T03:28:51.258Z,100340
2017-12-01T03:31:19.460Z,100343
2017-12-01T03:33:47.565Z,100341
2017-12-01T03:36:16.405Z,100349
2017-12-01T03:38:45.358Z,100349
2017-12-01T03:41:13.435Z,100345
2017-12-01T03:43:41.547Z,100350
2017-12-01T03:46:09.606Z,100360
2017-12-01T03:48:37.768Z,100359
2017-12-01T03:51:05.931Z,100359
2017-12-01T03:53:34.085Z,100363
2017-12-01T03:56:02.112Z,100363
2017-12-01T03:58:30.190Z,100372
2017-12-01T04:01:00.123Z,100366
2017-12-01T04:03:28.992Z,100358
2017-12-01T04:05:57.120Z,100359
2017-12-01T04:08:25.206Z,100363
2017-12-01T04:10:53.368Z,100367
2017-12-01T04:13:21.498Z,100370
2017-12-01T04:15:49.632Z,100376
2017-12-01T04:18:17.699Z,100378
2017-12-01T04:20:45.774Z,100379
2017-12-01T04:23:13.857Z,100378
2017-12-01T04:25:41.935Z,100383
2017-12-01T04:28:10.812Z,100390
2017-12-01T04:30:38.886Z,100378
2017-12-01T04:33:07.846Z,100388
2017-12-01T04:35:36.008Z,100400
2017-12-01T04:38:04.088Z,100398
2017-12-01T04:40:32.179Z,100402
2017-12-01T04:43:00.242Z,100405
2017-12-01T04:45:28.315Z,100417
2017-12-01T04:47:56.385Z,100413
2017-12-01T04:50:24.446Z,100408
2017-12-01T04:52:52.580Z,100421
2017-12-01T04:55:21.441Z,100433
2017-12-01T04:57:49.519Z,100436
2017-12-01T05:00:17.582Z,100431
2017-12-01T05:02:45.659Z,100438
2017-12-01T05:05:14.241Z,100442
2017-12-01T05:07:42.315Z,100450
2017-12-01T05:10:10.387Z,100446
2017-12-01T05:12:38.450Z,100452
2017-12-01T05:15:06.519Z,100452
2017-12-01T05:17:34.591Z,100450
2017-12-01T05:20:02.654Z,100451
2017-12-01T05:22:30.717Z,100454
2017-12-01T05:24:59.586Z,100458
2017-12-01T05:27:27.716Z,100463
2017-12-01T05:29:55.748Z,100464
2017-12-01T05:32:23.819Z,100464
2017-12-01T05:34:51.917Z,100467
2017-12-01T05:37:20.783Z,100466
2017-12-01T05:39:48.864Z,100464
2017-12-01T05:42:16.974Z,100474
2017-12-01T05:44:45.047Z,100476
2017-12-01T05:47:13.121Z,100484
2017-12-01T05:49:41.210Z,100476
2017-12-01T05:52:09.275Z,100495
2017-12-01T05:54:37.351Z,100494
2017-12-01T05:57:05.421Z,100496
2017-12-01T05:59:33.506Z,100497
2017-12-01T06:02:01.579Z,100495
2017-12-01T06:04:29.660Z,100513
2017-12-01T06:06:57.782Z,100501
2017-12-01T06:09:25.846Z,100501
2017-12-01T06:11:53.907Z,100506
2017-12-01T06:14:21.992Z,100515
2017-12-01T06:16:50.118Z,100522
2017-12-01T06:19:18.188Z,100516
2017-12-01T06:21:46.260Z,100518
2017-12-01T06:24:14.697Z,100520
2017-12-01T06:26:42.808Z,100516
2017-12-01T06:29:10.865Z,100515
2017-12-01T06:31:38.952Z,100527
2017-12-01T06:34:07.025Z,100525
2017-12-01T06:36:35.286Z,100527
2017-12-01T06:39:03.475Z,100533
2017-12-01T06:41:31.576Z,100527
2017-12-01T06:43:59.693Z,100536
2017-12-01T06:46:28.392Z,100544
2017-12-01T06:48:56.462Z,100544
2017-12-01T06:51:24.535Z,100554
2017-12-01T06:53:52.614Z,100547
2017-12-01T06:56:20.687Z,100565
2017-12-01T06:58:48.742Z,100560
2017-12-01T07:01:16.828Z,100564
2017-12-01T07:03:44.898Z,100565
2017-12-01T07:06:12.971Z,100572
2017-12-01T07:08:41.143Z,100581
2017-12-01T07:11:09.201Z,100590
2017-12-01T07:13:37.300Z,100573
2017-12-01T07:16:06.141Z,100576
2017-12-01T07:18:34.220Z,100573
2017-12-01T07:21:02.412Z,100590
2017-12-01T07:23:30.507Z,100593
2017-12-01T07:28:59.171Z,100604
2017-12-01T07:31:27.244Z,100614
2017-12-01T07:33:55.312Z,100607
2017-12-01T07:36:23.399Z,100614
2017-12-01T07:38:51.490Z,100620
2017-12-01T07:41:20.346Z,100612
2017-12-01T07:43:48.431Z,100621
2017-12-01T07:46:16.503Z,100630
2017-12-01T07:48:44.571Z,100638
2017-12-01T07:51:12.659Z,100632
2017-12-01T07:53:41.496Z,100630
2017-12-01T07:56:09.579Z,100628
2017-12-01T07:58:37.653Z,100630
2017-12-01T08:01:05.727Z,100635
2017-12-01T08:03:33.800Z,100635
2017-12-01T08:06:02.121Z,100652
2017-12-01T08:08:30.223Z,100652
2017-12-01T08:10:58.300Z,100667
2017-12-01T08:13:26.383Z,100663
2017-12-01T08:16:12.627Z,100673
2017-12-01T08:19:04.340Z,100676
2017-12-01T08:21:51.245Z,100682
2017-12-01T08:24:37.980Z,100684
2017-12-01T08:27:06.827Z,100693
2017-12-01T08:29:34.911Z,100693
2017-12-01T08:32:03.759Z,100694
2017-12-01T08:34:31.831Z,100704
2017-12-01T08:36:59.926Z,100705
2017-12-01T08:39:28.003Z,100702
2017-12-01T08:41:56.069Z,100706
2017-12-01T08:44:24.240Z,100712
2017-12-01T08:46:52.317Z,100713
2017-12-01T08:49:20.454Z,100719
2017-12-01T08:51:48.531Z,100725
2017-12-01T08:54:17.022Z,100738
2017-12-01T08:56:45.096Z,100729
2017-12-01T08:59:13.178Z,100724
2017-12-01T09:01:41.238Z,100739
2017-12-01T09:04:09.340Z,100735
2017-12-01T09:06:38.185Z,100744
2017-12-01T09:09:06.267Z,100746
2017-12-01T09:11:34.327Z,100752
2017-12-01T09:14:02.561Z,100757
2017-12-01T09:16:32.298Z,100760
2017-12-01T09:19:00.384Z,100753
2017-12-01T09:21:28.467Z,100754
2017-12-01T09:23:56.547Z,100755
2017-12-01T09:26:24.734Z,100756
2017-12-01T09:28:52.713Z,100754
2017-12-01T09:31:21.559Z,100766
2017-12-01T09:33:49.635Z,100763
2017-12-01T09:36:17.708Z,100765
2017-12-01T09:38:45.775Z,100772
2017-12-01T09:41:13.848Z,100761
2017-12-01T09:43:41.916Z,100767
2017-12-01T09:46:09.987Z,100766
2017-12-01T09:48:38.171Z,100771
2017-12-01T09:51:06.243Z,100774
2017-12-01T09:53:34.415Z,100767
2017-12-01T09:56:02.487Z,100766
2017-12-01T09:58:30.572Z,100775
2017-12-01T10:00:59.407Z,100770
2017-12-01T10:03:27.476Z,100777
2017-12-01T10:05:55.540Z,100788
2017-12-01T10:08:23.632Z,100767
2017-12-01T10:10:51.704Z,100763
2017-12-01T10:13:20.223Z,100779
2017-12-01T10:15:48.459Z,100782
2017-12-01T10:18:16.554Z,100781
2017-12-01T10:20:44.618Z,100782
2017-12-01T10:23:12.785Z,100774
2017-12-01T10:25:41.636Z,100784
2017-12-01T10:28:09.788Z,100781
2017-12-01T10:30:38.635Z,100787
2017-12-01T10:33:06.753Z,100783
2017-12-01T10:35:34.834Z,100787
2017-12-01T10:38:02.919Z,100779
2017-12-01T10:40:31.026Z,100781
2017-12-01T10:42:59.097Z,100784
2017-12-01T10:45:27.283Z,100784
2017-12-01T10:47:56.131Z,100797
2017-12-01T10:50:24.248Z,100795
2017-12-01T10:52:53.099Z,100794
2017-12-01T10:55:21.196Z,100799
2017-12-01T10:57:50.044Z,100796
2017-12-01T11:00:18.120Z,100803
2017-12-01T11:02:46.224Z,100806
2017-12-01T11:05:14.502Z,100806
2017-12-01T11:07:43.351Z,100814
2017-12-01T11:10:12.009Z,100811
2017-12-01T11:12:40.184Z,100811
2017-12-01T11:15:08.254Z,100810
2017-12-01T11:17:36.342Z,100828
2017-12-01T11:20:09.287Z,100822
2017-12-01T11:22:38.160Z,100819
2017-12-01T11:25:06.243Z,100825
2017-12-01T11:27:35.091Z,100829
2017-12-01T11:30:03.180Z,100824
2017-12-01T11:32:31.371Z,100831
2017-12-01T11:35:00.211Z,100825
2017-12-01T11:37:28.282Z,100829
2017-12-01T11:39:56.343Z,100835
2017-12-01T11:42:24.416Z,100837
2017-12-01T11:44:52.522Z,100829
2017-12-01T11:47:20.615Z,100836
2017-12-01T11:49:49.459Z,100836
2017-12-01T11:52:17.686Z,100843
2017-12-01T11:54:47.318Z,100835
2017-12-01T11:57:17.478Z,100843
2017-12-01T11:59:45.579Z,100847
2017-12-01T12:02:13.697Z,100834
2017-12-01T12:04:41.838Z,100838
2017-12-01T12:07:10.096Z,100849
2017-12-01T12:09:38.948Z,100850
2017-12-01T12:12:07.038Z,100846
2017-12-01T12:14:35.127Z,100847
2017-12-01T12:17:03.972Z,100850
2017-12-01T12:19:32.043Z,100844
2017-12-01T12:22:00.120Z,100859
2017-12-01T12:24:28.188Z,100855
2017-12-01T12:26:56.791Z,100862
2017-12-01T12:29:24.862Z,100860
2017-12-01T12:31:52.939Z,100865
2017-12-01T12:34:21.162Z,100860
2017-12-01T12:36:49.232Z,100871
2017-12-01T12:39:17.318Z,100881
2017-12-01T12:41:45.390Z,100872
2017-12-01T12:44:13.498Z,100877
2017-12-01T12:46:41.567Z,100871
2017-12-01T12:49:09.632Z,100880
2017-12-01T12:51:37.708Z,100873
2017-12-01T12:54:05.783Z,100875
2017-12-01T12:56:33.958Z,100878
2017-12-01T12:59:02.032Z,100885
2017-12-01T13:01:30.897Z,100890
2017-12-01T13:03:58.971Z,100883
2017-12-01T13:06:27.050Z,100904
2017-12-01T13:08:55.128Z,100905
2017-12-01T13:11:23.234Z,100904
2017-12-01T13:13:51.363Z,100911
2017-12-01T13:16:19.429Z,100903
2017-12-01T13:18:47.500Z,100919
2017-12-01T13:21:15.582Z,100912
2017-12-01T13:23:43.656Z,100921
2017-12-01T13:26:11.727Z,100921
2017-12-01T13:28:39.795Z,100911
2017-12-01T13:31:08.652Z,100915
2017-12-01T13:33:36.722Z,100919
2017-12-01T13:36:04.795Z,100916
2017-12-01T13:38:32.867Z,100926
2017-12-01T13:41:00.949Z,100930
2017-12-01T13:43:29.028Z,100938
2017-12-01T13:45:57.102Z,100943
2017-12-01T13:48:25.178Z,100952
2017-12-01T13:50:54.029Z,100953
2017-12-01T13:53:22.152Z,100953
2017-12-01T13:55:50.999Z,100964
2017-12-01T13:58:19.084Z,100962
2017-12-01T14:00:47.256Z,100966
2017-12-01T14:03:15.346Z,100961
2017-12-01T14:05:44.193Z,100959
2017-12-01T14:08:12.262Z,100969
2017-12-01T14:10:40.778Z,100955
2017-12-01T14:13:08.851Z,100963
2017-12-01T14:15:36.923Z,100975
2017-12-01T14:18:05.100Z,100974
2017-12-01T14:20:33.184Z,100973
2017-12-01T14:23:02.035Z,100965
2017-12-01T14:25:30.119Z,100981
2017-12-01T14:27:58.188Z,100985
2017-12-01T14:30:26.309Z,100989
2017-12-01T14:32:55.143Z,100984
2017-12-01T14:35:23.319Z,100981
2017-12-01T14:37:51.482Z,100987
2017-12-01T14:40:19.551Z,100990
2017-12-01T14:42:47.624Z,100992
2017-12-01T14:45:27.388Z,100991
2017-12-01T14:47:55.466Z,100993
2017-12-01T14:50:23.532Z,101002
2017-12-01T14:52:51.599Z,100999
2017-12-01T14:55:19.676Z,101007
2017-12-01T14:57:48.608Z,101011
2017-12-01T15:00:16.697Z,101014
2017-12-01T15:02:44.778Z,101021
2017-12-01T15:05:12.962Z,101021
2017-12-01T15:07:41.066Z,101021
2017-12-01T15:10:09.119Z,101030
2017-12-01T15:12:37.242Z,101036
2017-12-01T15:15:05.331Z,101039
2017-12-01T15:17:33.421Z,101035
2017-12-01T15:20:01.488Z,101051
2017-12-01T15:22:29.563Z,101047
2017-12-01T15:24:57.627Z,101055
2017-12-01T15:27:25.712Z,101058
2017-12-01T15:29:53.784Z,101068
2017-12-01T15:32:21.837Z,101065
2017-12-01T15:34:49.931Z,101070
2017-12-01T15:37:19.122Z,101072
2017-12-01T15:39:47.180Z,101077
2017-12-01T15:42:15.275Z,101077
2017-12-01T15:44:44.147Z,101089
2017-12-01T15:47:12.307Z,101094
2017-12-01T15:49:40.506Z,101100
2017-12-01T15:52:09.379Z,101106
2017-12-01T15:54:37.455Z,101092
2017-12-01T15:57:05.522Z,101104
2017-12-01T15:59:33.606Z,101114
2017-12-01T16:02:01.659Z,101112
2017-12-01T16:04:29.758Z,101117
2017-12-01T16:06:58.628Z,101128
2017-12-01T16:09:26.727Z,101126
2017-12-01T16:11:54.801Z,101128
2017-12-01T16:14:22.972Z,101142
2017-12-01T16:16:51.815Z,101130
2017-12-01T16:19:19.887Z,101139
2017-12-01T16:21:47.956Z,101141
2017-12-01T16:24:16.029Z,101147
2017-12-01T16:26:44.127Z,101144
2017-12-01T16:29:12.991Z,101146
2017-12-01T16:31:41.171Z,101163
2017-12-01T16:34:09.242Z,101155
2017-12-01T16:36:37.312Z,101156
2017-12-01T16:39:05.479Z,101161
2017-12-01T16:41:33.567Z,101171
2017-12-01T16:44:02.479Z,101164
2017-12-01T16:46:30.546Z,101175
2017-12-01T16:48:59.392Z,101166
2017-12-01T16:51:27.473Z,101176
2017-12-01T16:53:55.647Z,101181
2017-12-01T16:56:23.859Z,101184
2017-12-01T16:58:51.928Z,101184
2017-12-01T17:01:20.006Z,101182
2017-12-01T17:03:48.075Z,101190
2017-12-01T17:06:16.168Z,101193
2017-12-01T17:08:44.264Z,101190
2017-12-01T17:11:12.351Z,101195
2017-12-01T17:13:40.426Z,101195
2017-12-01T17:16:09.368Z,101211
2017-12-01T17:18:37.448Z,101209
2017-12-01T17:21:05.519Z,101215
2017-12-01T17:23:33.603Z,101204
2017-12-01T17:26:02.325Z,101214
2017-12-01T17:28:31.201Z,101212
2017-12-01T17:30:59.283Z,101214
2017-12-01T17:33:28.135Z,101216
2017-12-01T17:35:56.203Z,101218
2017-12-01T17:38:24.380Z,101215
2017-12-01T17:40:52.449Z,101216
2017-12-01T17:43:20.523Z,101217
2017-12-01T17:45:48.615Z,101212
2017-12-01T17:48:16.775Z,101222
2017-12-01T17:50:44.860Z,101228
2017-12-01T17:53:12.918Z,101231
2017-12-01T17:55:41.008Z,101230
2017-12-01T17:58:09.836Z,101238
2017-12-01T18:00:37.939Z,101240
2017-12-01T18:03:05.972Z,101247
2017-12-01T18:05:34.062Z,101240
2017-12-01T18:08:02.163Z,101250
2017-12-01T18:10:30.334Z,101256
2017-12-01T18:12:58.528Z,101270
2017-12-01T18:15:26.619Z,101266
2017-12-01T18:17:55.048Z,101257
2017-12-01T18:20:23.122Z,101264
2017-12-01T18:22:51.191Z,101270
2017-12-01T18:32:17.570Z,101271
2017-12-01T18:34:45.638Z,101278
2017-12-01T18:37:13.726Z,101277
2017-12-01T18:39:41.797Z,101288
2017-12-01T18:42:10.644Z,101289
2017-12-01T18:44:38.707Z,101290
2017-12-01T18:47:06.784Z,101291
2017-12-01T18:49:34.849Z,101297
2017-12-01T18:52:03.595Z,101302
2017-12-01T18:54:32.430Z,101307
2017-12-01T18:57:00.499Z,101317
2017-12-01T18:59:28.582Z,101311
2017-12-01T19:01:56.668Z,101321
2017-12-01T19:04:24.736Z,101319
2017-12-01T19:06:52.816Z,101316
2017-12-01T19:09:20.893Z,101317
2017-12-01T19:11:49.058Z,101322
2017-12-01T19:14:17.147Z,101327
2017-12-01T19:16:46.077Z,101325
2017-12-01T19:19:14.195Z,101333
2017-12-01T19:21:42.275Z,101337
2017-12-01T19:24:11.120Z,101344
2017-12-01T19:26:39.192Z,101338
2017-12-01T19:29:07.312Z,101343
2017-12-01T19:31:36.164Z,101329
2017-12-01T19:34:04.227Z,101341
2017-12-01T19:36:32.308Z,101342
2017-12-01T19:39:00.393Z,101347
2017-12-01T19:41:28.523Z,101350
2017-12-01T19:43:56.594Z,101369
2017-12-01T19:46:24.751Z,101371
2017-12-01T19:48:52.838Z,101371
2017-12-01T19:51:20.908Z,101370
2017-12-01T19:53:48.979Z,101369
2017-12-01T19:56:17.060Z,101372
2017-12-01T19:58:45.139Z,101389
2017-12-01T20:01:13.243Z,101387
2017-12-01T20:03:42.084Z,101394
2017-12-01T20:06:10.174Z,101394
2017-12-01T20:08:38.242Z,101390
2017-12-01T20:11:06.449Z,101394
2017-12-01T20:13:35.294Z,101395
2017-12-01T20:16:03.393Z,101392
2017-12-01T20:18:31.461Z,101402
2017-12-01T20:20:59.530Z,101395
2017-12-01T20:23:27.620Z,101403
2017-12-01T20:25:56.520Z,101402
2017-12-01T20:28:25.379Z,101402
2017-12-01T20:30:53.442Z,101403
2017-12-01T20:33:21.515Z,101397
2017-12-01T20:35:49.592Z,101411
2017-12-01T20:38:17.681Z,101419
2017-12-01T20:40:45.757Z,101410
2017-12-01T20:43:14.620Z,101416
2017-12-01T20:45:42.688Z,101419
2017-12-01T20:48:10.756Z,101423
2017-12-01T20:50:38.834Z,101417
2017-12-01T20:53:07.086Z,101423
2017-12-01T20:55:35.159Z,101424
2017-12-01T20:58:03.284Z,101422
2017-12-01T21:00:31.335Z,101425
2017-12-01T21:02:59.422Z,101423
2017-12-01T21:05:28.266Z,101432
2017-12-01T21:07:56.399Z,101429
2017-12-01T21:10:24.588Z,101442
2017-12-01T21:12:52.647Z,101439
2017-12-01T21:15:20.725Z,101439
2017-12-01T21:17:48.839Z,101429
2017-12-01T21:20:16.927Z,101445
2017-12-01T21:22:45.770Z,101444
2017-12-01T21:25:13.839Z,101445
2017-12-01T21:27:42.121Z,101453
2017-12-01T21:30:10.745Z,101441
2017-12-01T21:32:40.203Z,101442
2017-12-01T21:35:08.337Z,101448
2017-12-01T21:37:36.450Z,101438
2017-12-01T21:40:04.518Z,101444
2017-12-01T21:42:32.600Z,101439
2017-12-01T21:45:00.671Z,101443
2017-12-01T21:47:28.743Z,101446
2017-12-01T21:49:56.820Z,101453
2017-12-01T21:52:24.903Z,101441
2017-12-01T21:54:53.063Z,101449
2017-12-01T21:57:21.141Z,101456
2017-12-01T21:59:49.219Z,101450
2017-12-01T22:02:17.381Z,101458
2017-12-01T22:04:45.448Z,101458
2017-12-01T22:07:13.514Z,101459
2017-12-01T22:09:41.591Z,101469
2017-12-01T22:12:09.654Z,101473
2017-12-01T22:14:37.731Z,101468
2017-12-01T22:17:05.849Z,101470
2017-12-01T22:19:33.999Z,101480
2017-12-01T22:22:02.852Z,101476
2017-12-01T22:24:31.012Z,101476
2017-12-01T22:26:59.078Z,101481
2017-12-01T22:29:27.223Z,101482
2017-12-01T22:31:56.060Z,101483
2017-12-01T22:34:24.139Z,101481
2017-12-01T22:36:52.315Z,101476
2017-12-01T22:39:20.392Z,101483
2017-12-01T22:41:48.459Z,101487
2017-12-01T22:44:16.633Z,101500
2017-12-01T22:46:44.701Z,101484
2017-12-01T22:49:12.773Z,101491
2017-12-01T22:51:40.839Z,101500
2017-12-01T22:54:08.910Z,101501
2017-12-01T22:56:36.973Z,101502
2017-12-01T22:59:05.046Z,101506
2017-12-01T23:01:33.111Z,101505
2017-12-01T23:04:01.196Z,101502
2017-12-01T23:06:29.268Z,101519
2017-12-01T23:08:57.430Z,101513
2017-12-01T23:11:25.515Z,101522
2017-12-01T23:13:53.595Z,101519
2017-12-01T23:16:21.726Z,101520
2017-12-01T23:18:49.795Z,101519
2017-12-01T23:21:17.866Z,101515
2017-12-01T23:23:46.942Z,101523
2017-12-01T23:26:15.055Z,101524
2017-12-01T23:28:43.123Z,101520
2017-12-01T23:31:11.197Z,101518
2017-12-01T23:33:39.267Z,101517
2017-12-01T23:36:07.339Z,101527
2017-12-01T23:38:35.407Z,101520
2017-12-01T23:41:03.498Z,101523
2017-12-01T23:43:32.331Z,101522
2017-12-01T23:46:00.404Z,101516
2017-12-01T23:48:28.511Z,101533
2017-12-01T23:50:56.583Z,101526
2017-12-01T23:53:24.662Z,101532
2017-12-01T23:55:52.722Z,101537
2017-12-01T23:58:20.807Z,101536
